sensor_id;sensor_type;location;lat;lon;timestamp;P1;durP1;ratioP1;P2;durP2;ratioP2
32872;SDS011;19224;52.462;16.898;2022-12-20T00:00:49;34.35;;;17.67;;
32872;SDS011;19224;52.462;16.898;2022-12-20T00:03:20;35.78;;;17.40;;
32872;SDS011;19224;52.462;16.898;2022-12-20T00:05:50;34.25;;;17.73;;
32872;SDS011;19224;52.462;16.898;2022-12-20T00:08:21;35.43;;;16.85;;
32872;SDS011;19224;52.462;16.898;2022-12-20T00:10:52;33.63;;;16.65;;
32872;SDS011;19224;52.462;16.898;2022-12-20T00:13:22;52.08;;;27.32;;
32872;SDS011;19224;52.462;16.898;2022-12-20T00:16:14;34.03;;;16.97;;
32872;SDS011;19224;52.462;16.898;2022-12-20T00:18:43;32.48;;;15.70;;
32872;SDS011;19224;52.462;16.898;2022-12-20T00:21:13;30.95;;;16.12;;
32872;SDS011;19224;52.462;16.898;2022-12-20T00:23:44;33.15;;;16.93;;
32872;SDS011;19224;52.462;16.898;2022-12-20T00:26:16;33.85;;;15.88;;
32872;SDS011;19224;52.462;16.898;2022-12-20T00:28:49;36.23;;;18.45;;
32872;SDS011;19224;52.462;16.898;2022-12-20T00:31:20;33.42;;;16.93;;
32872;SDS011;19224;52.462;16.898;2022-12-20T00:33:55;36.03;;;18.35;;
32872;SDS011;19224;52.462;16.898;2022-12-20T00:36:28;34.75;;;17.05;;
32872;SDS011;19224;52.462;16.898;2022-12-20T00:39:00;35.57;;;16.67;;
32872;SDS011;19224;52.462;16.898;2022-12-20T00:41:32;33.88;;;17.57;;
32872;SDS011;19224;52.462;16.898;2022-12-20T00:44:03;34.50;;;17.12;;
32872;SDS011;19224;52.462;16.898;2022-12-20T00:46:33;33.42;;;17.62;;
32872;SDS011;19224;52.462;16.898;2022-12-20T00:49:04;34.30;;;16.95;;
32872;SDS011;19224;52.462;16.898;2022-12-20T00:51:34;32.63;;;15.98;;
32872;SDS011;19224;52.462;16.898;2022-12-20T00:54:05;36.55;;;17.42;;
32872;SDS011;19224;52.462;16.898;2022-12-20T00:56:36;31.33;;;17.00;;
32872;SDS011;19224;52.462;16.898;2022-12-20T00:59:06;30.88;;;17.02;;
32872;SDS011;19224;52.462;16.898;2022-12-20T01:01:36;35.60;;;17.50;;
32872;SDS011;19224;52.462;16.898;2022-12-20T01:04:07;32.35;;;15.63;;
32872;SDS011;19224;52.462;16.898;2022-12-20T01:06:37;32.10;;;16.65;;
32872;SDS011;19224;52.462;16.898;2022-12-20T01:09:09;33.55;;;15.85;;
32872;SDS011;19224;52.462;16.898;2022-12-20T01:11:40;31.35;;;16.50;;
32872;SDS011;19224;52.462;16.898;2022-12-20T01:14:12;33.28;;;16.95;;
32872;SDS011;19224;52.462;16.898;2022-12-20T01:16:44;34.78;;;17.75;;
32872;SDS011;19224;52.462;16.898;2022-12-20T01:19:16;35.33;;;16.97;;
32872;SDS011;19224;52.462;16.898;2022-12-20T01:21:47;35.48;;;17.35;;
32872;SDS011;19224;52.462;16.898;2022-12-20T01:24:18;35.95;;;18.17;;
32872;SDS011;19224;52.462;16.898;2022-12-20T01:26:48;34.78;;;17.48;;
32872;SDS011;19224;52.462;16.898;2022-12-20T01:29:19;37.00;;;17.55;;
32872;SDS011;19224;52.462;16.898;2022-12-20T01:31:49;33.20;;;17.73;;
32872;SDS011;19224;52.462;16.898;2022-12-20T01:34:21;35.80;;;16.62;;
32872;SDS011;19224;52.462;16.898;2022-12-20T01:36:51;35.88;;;17.85;;
32872;SDS011;19224;52.462;16.898;2022-12-20T01:39:22;33.58;;;17.00;;
32872;SDS011;19224;52.462;16.898;2022-12-20T01:41:53;36.42;;;16.82;;
32872;SDS011;19224;52.462;16.898;2022-12-20T01:46:58;34.10;;;16.87;;
32872;SDS011;19224;52.462;16.898;2022-12-20T01:49:32;33.90;;;15.65;;
32872;SDS011;19224;52.462;16.898;2022-12-20T01:52:17;32.20;;;16.40;;
32872;SDS011;19224;52.462;16.898;2022-12-20T01:55:29;31.42;;;16.35;;
32872;SDS011;19224;52.462;16.898;2022-12-20T01:57:38;32.58;;;16.48;;
32872;SDS011;19224;52.462;16.898;2022-12-20T02:00:13;31.75;;;15.60;;
32872;SDS011;19224;52.462;16.898;2022-12-20T02:02:46;31.35;;;15.40;;
32872;SDS011;19224;52.462;16.898;2022-12-20T02:05:18;29.42;;;15.18;;
32872;SDS011;19224;52.462;16.898;2022-12-20T02:07:51;29.60;;;15.65;;
32872;SDS011;19224;52.462;16.898;2022-12-20T02:10:26;30.60;;;15.93;;
32872;SDS011;19224;52.462;16.898;2022-12-20T02:13:03;28.37;;;15.77;;
32872;SDS011;19224;52.462;16.898;2022-12-20T02:21:13;32.55;;;15.90;;
32872;SDS011;19224;52.462;16.898;2022-12-20T02:24:24;34.80;;;16.27;;
32872;SDS011;19224;52.462;16.898;2022-12-20T02:33:01;32.25;;;16.73;;
32872;SDS011;19224;52.462;16.898;2022-12-20T02:35:36;31.02;;;16.17;;
32872;SDS011;19224;52.462;16.898;2022-12-20T02:38:25;32.43;;;16.50;;
32872;SDS011;19224;52.462;16.898;2022-12-20T02:41:06;32.78;;;16.80;;
32872;SDS011;19224;52.462;16.898;2022-12-20T02:43:40;35.28;;;18.20;;
32872;SDS011;19224;52.462;16.898;2022-12-20T02:46:30;29.87;;;16.42;;
32872;SDS011;19224;52.462;16.898;2022-12-20T02:49:06;33.35;;;17.10;;
32872;SDS011;19224;52.462;16.898;2022-12-20T02:51:40;31.87;;;16.52;;
32872;SDS011;19224;52.462;16.898;2022-12-20T02:54:14;32.67;;;16.50;;
32872;SDS011;19224;52.462;16.898;2022-12-20T02:56:50;29.52;;;15.98;;
32872;SDS011;19224;52.462;16.898;2022-12-20T02:59:28;31.73;;;15.78;;
32872;SDS011;19224;52.462;16.898;2022-12-20T03:02:07;30.52;;;16.42;;
32872;SDS011;19224;52.462;16.898;2022-12-20T03:04:38;27.40;;;15.15;;
32872;SDS011;19224;52.462;16.898;2022-12-20T03:07:12;31.33;;;16.17;;
32872;SDS011;19224;52.462;16.898;2022-12-20T03:09:43;30.52;;;15.58;;
32872;SDS011;19224;52.462;16.898;2022-12-20T03:12:14;32.35;;;16.10;;
32872;SDS011;19224;52.462;16.898;2022-12-20T03:14:45;30.08;;;15.28;;
32872;SDS011;19224;52.462;16.898;2022-12-20T03:17:15;32.75;;;16.80;;
32872;SDS011;19224;52.462;16.898;2022-12-20T03:19:46;36.42;;;17.62;;
32872;SDS011;19224;52.462;16.898;2022-12-20T03:22:16;38.30;;;17.15;;
32872;SDS011;19224;52.462;16.898;2022-12-20T03:24:47;32.75;;;16.55;;
32872;SDS011;19224;52.462;16.898;2022-12-20T03:27:18;33.40;;;16.55;;
32872;SDS011;19224;52.462;16.898;2022-12-20T03:29:48;30.77;;;16.25;;
32872;SDS011;19224;52.462;16.898;2022-12-20T03:32:18;30.87;;;16.20;;
32872;SDS011;19224;52.462;16.898;2022-12-20T03:34:49;33.40;;;15.58;;
32872;SDS011;19224;52.462;16.898;2022-12-20T03:37:19;29.30;;;15.13;;
32872;SDS011;19224;52.462;16.898;2022-12-20T03:39:50;30.17;;;15.65;;
32872;SDS011;19224;52.462;16.898;2022-12-20T03:42:21;30.32;;;16.10;;
32872;SDS011;19224;52.462;16.898;2022-12-20T03:44:51;31.73;;;15.75;;
32872;SDS011;19224;52.462;16.898;2022-12-20T03:47:22;31.75;;;16.50;;
32872;SDS011;19224;52.462;16.898;2022-12-20T03:49:53;31.62;;;16.97;;
32872;SDS011;19224;52.462;16.898;2022-12-20T03:52:24;30.80;;;15.58;;
32872;SDS011;19224;52.462;16.898;2022-12-20T03:54:55;32.53;;;16.07;;
32872;SDS011;19224;52.462;16.898;2022-12-20T03:57:25;30.97;;;16.17;;
32872;SDS011;19224;52.462;16.898;2022-12-20T03:59:56;29.80;;;15.93;;
32872;SDS011;19224;52.462;16.898;2022-12-20T04:02:27;30.43;;;16.30;;
32872;SDS011;19224;52.462;16.898;2022-12-20T04:04:57;31.35;;;16.10;;
32872;SDS011;19224;52.462;16.898;2022-12-20T04:07:27;32.28;;;15.40;;
32872;SDS011;19224;52.462;16.898;2022-12-20T04:09:57;29.82;;;14.87;;
32872;SDS011;19224;52.462;16.898;2022-12-20T04:12:28;32.33;;;15.68;;
32872;SDS011;19224;52.462;16.898;2022-12-20T04:14:58;31.33;;;15.20;;
32872;SDS011;19224;52.462;16.898;2022-12-20T04:17:29;35.90;;;15.72;;
32872;SDS011;19224;52.462;16.898;2022-12-20T04:19:59;24.25;;;14.15;;
32872;SDS011;19224;52.462;16.898;2022-12-20T04:22:31;30.72;;;14.87;;
32872;SDS011;19224;52.462;16.898;2022-12-20T04:25:01;28.07;;;14.68;;
32872;SDS011;19224;52.462;16.898;2022-12-20T04:27:32;31.80;;;15.45;;
32872;SDS011;19224;52.462;16.898;2022-12-20T04:30:03;33.28;;;16.45;;
32872;SDS011;19224;52.462;16.898;2022-12-20T04:32:34;28.23;;;14.73;;
32872;SDS011;19224;52.462;16.898;2022-12-20T04:35:05;28.50;;;15.05;;
32872;SDS011;19224;52.462;16.898;2022-12-20T04:37:36;32.17;;;16.27;;
32872;SDS011;19224;52.462;16.898;2022-12-20T04:40:06;32.03;;;15.45;;
32872;SDS011;19224;52.462;16.898;2022-12-20T04:42:38;26.05;;;14.30;;
32872;SDS011;19224;52.462;16.898;2022-12-20T04:45:09;26.80;;;14.95;;
32872;SDS011;19224;52.462;16.898;2022-12-20T04:47:40;29.12;;;14.75;;
32872;SDS011;19224;52.462;16.898;2022-12-20T04:50:10;29.87;;;14.75;;
32872;SDS011;19224;52.462;16.898;2022-12-20T04:52:41;29.00;;;14.98;;
32872;SDS011;19224;52.462;16.898;2022-12-20T04:55:29;27.35;;;14.95;;
32872;SDS011;19224;52.462;16.898;2022-12-20T04:58:01;29.12;;;15.90;;
32872;SDS011;19224;52.462;16.898;2022-12-20T05:00:32;31.23;;;16.05;;
32872;SDS011;19224;52.462;16.898;2022-12-20T05:03:03;29.48;;;15.13;;
32872;SDS011;19224;52.462;16.898;2022-12-20T05:05:33;32.03;;;15.75;;
32872;SDS011;19224;52.462;16.898;2022-12-20T05:08:04;28.10;;;14.75;;
32872;SDS011;19224;52.462;16.898;2022-12-20T05:10:34;25.70;;;14.10;;
32872;SDS011;19224;52.462;16.898;2022-12-20T05:13:05;30.92;;;15.20;;
32872;SDS011;19224;52.462;16.898;2022-12-20T05:15:36;28.38;;;14.45;;
32872;SDS011;19224;52.462;16.898;2022-12-20T05:18:06;29.67;;;14.18;;
32872;SDS011;19224;52.462;16.898;2022-12-20T05:20:37;32.08;;;15.98;;
32872;SDS011;19224;52.462;16.898;2022-12-20T05:23:08;25.82;;;13.83;;
32872;SDS011;19224;52.462;16.898;2022-12-20T05:25:57;27.10;;;15.25;;
32872;SDS011;19224;52.462;16.898;2022-12-20T05:28:46;28.12;;;14.30;;
32872;SDS011;19224;52.462;16.898;2022-12-20T05:31:16;29.15;;;15.70;;
32872;SDS011;19224;52.462;16.898;2022-12-20T05:33:47;29.95;;;15.10;;
32872;SDS011;19224;52.462;16.898;2022-12-20T05:36:17;29.37;;;15.18;;
32872;SDS011;19224;52.462;16.898;2022-12-20T05:38:48;29.45;;;14.85;;
32872;SDS011;19224;52.462;16.898;2022-12-20T05:41:18;26.80;;;14.53;;
32872;SDS011;19224;52.462;16.898;2022-12-20T05:43:49;28.07;;;15.15;;
32872;SDS011;19224;52.462;16.898;2022-12-20T05:46:19;27.17;;;14.87;;
32872;SDS011;19224;52.462;16.898;2022-12-20T05:48:49;30.17;;;14.35;;
32872;SDS011;19224;52.462;16.898;2022-12-20T05:51:20;29.57;;;15.20;;
32872;SDS011;19224;52.462;16.898;2022-12-20T05:53:51;34.30;;;14.85;;
32872;SDS011;19224;52.462;16.898;2022-12-20T05:56:21;27.77;;;14.65;;
32872;SDS011;19224;52.462;16.898;2022-12-20T05:58:52;29.95;;;15.32;;
32872;SDS011;19224;52.462;16.898;2022-12-20T06:01:22;30.65;;;15.55;;
32872;SDS011;19224;52.462;16.898;2022-12-20T06:03:53;28.98;;;15.60;;
32872;SDS011;19224;52.462;16.898;2022-12-20T06:06:23;32.45;;;15.55;;
32872;SDS011;19224;52.462;16.898;2022-12-20T06:08:54;27.00;;;15.45;;
32872;SDS011;19224;52.462;16.898;2022-12-20T06:11:24;29.32;;;15.03;;
32872;SDS011;19224;52.462;16.898;2022-12-20T06:13:55;27.27;;;14.43;;
32872;SDS011;19224;52.462;16.898;2022-12-20T06:16:26;27.75;;;15.28;;
32872;SDS011;19224;52.462;16.898;2022-12-20T06:18:56;31.57;;;14.47;;
32872;SDS011;19224;52.462;16.898;2022-12-20T06:21:27;29.55;;;15.15;;
32872;SDS011;19224;52.462;16.898;2022-12-20T06:23:58;31.50;;;16.62;;
32872;SDS011;19224;52.462;16.898;2022-12-20T06:26:29;31.00;;;14.83;;
32872;SDS011;19224;52.462;16.898;2022-12-20T06:29:01;26.87;;;15.15;;
32872;SDS011;19224;52.462;16.898;2022-12-20T06:31:39;33.60;;;17.67;;
32872;SDS011;19224;52.462;16.898;2022-12-20T06:34:09;34.23;;;18.02;;
32872;SDS011;19224;52.462;16.898;2022-12-20T06:36:40;33.53;;;17.00;;
32872;SDS011;19224;52.462;16.898;2022-12-20T06:39:11;29.77;;;15.45;;
32872;SDS011;19224;52.462;16.898;2022-12-20T06:41:42;30.37;;;15.45;;
32872;SDS011;19224;52.462;16.898;2022-12-20T06:44:12;30.02;;;15.25;;
32872;SDS011;19224;52.462;16.898;2022-12-20T06:46:43;30.43;;;15.05;;
32872;SDS011;19224;52.462;16.898;2022-12-20T06:49:13;27.30;;;14.78;;
32872;SDS011;19224;52.462;16.898;2022-12-20T06:51:43;30.57;;;15.90;;
32872;SDS011;19224;52.462;16.898;2022-12-20T06:54:14;30.92;;;15.03;;
32872;SDS011;19224;52.462;16.898;2022-12-20T06:56:44;28.23;;;14.03;;
32872;SDS011;19224;52.462;16.898;2022-12-20T06:59:15;31.12;;;16.10;;
32872;SDS011;19224;52.462;16.898;2022-12-20T07:01:45;28.38;;;14.93;;
32872;SDS011;19224;52.462;16.898;2022-12-20T07:04:15;29.20;;;15.55;;
32872;SDS011;19224;52.462;16.898;2022-12-20T07:06:46;30.05;;;15.38;;
32872;SDS011;19224;52.462;16.898;2022-12-20T07:09:17;29.55;;;15.38;;
32872;SDS011;19224;52.462;16.898;2022-12-20T07:11:47;31.33;;;15.95;;
32872;SDS011;19224;52.462;16.898;2022-12-20T07:14:18;32.08;;;16.48;;
32872;SDS011;19224;52.462;16.898;2022-12-20T07:16:49;30.15;;;15.60;;
32872;SDS011;19224;52.462;16.898;2022-12-20T07:19:19;33.98;;;17.07;;
32872;SDS011;19224;52.462;16.898;2022-12-20T07:21:49;31.27;;;16.20;;
32872;SDS011;19224;52.462;16.898;2022-12-20T07:24:20;33.55;;;17.12;;
32872;SDS011;19224;52.462;16.898;2022-12-20T07:26:50;34.33;;;18.02;;
32872;SDS011;19224;52.462;16.898;2022-12-20T07:29:21;29.30;;;16.02;;
32872;SDS011;19224;52.462;16.898;2022-12-20T07:31:52;29.32;;;15.32;;
32872;SDS011;19224;52.462;16.898;2022-12-20T07:34:22;32.00;;;16.42;;
32872;SDS011;19224;52.462;16.898;2022-12-20T07:36:53;23.92;;;13.40;;
32872;SDS011;19224;52.462;16.898;2022-12-20T07:39:23;28.83;;;15.85;;
32872;SDS011;19224;52.462;16.898;2022-12-20T07:41:54;29.50;;;15.83;;
32872;SDS011;19224;52.462;16.898;2022-12-20T07:44:24;31.85;;;16.05;;
32872;SDS011;19224;52.462;16.898;2022-12-20T07:46:55;31.90;;;15.32;;
32872;SDS011;19224;52.462;16.898;2022-12-20T07:49:25;28.98;;;14.85;;
32872;SDS011;19224;52.462;16.898;2022-12-20T07:51:56;31.70;;;16.77;;
32872;SDS011;19224;52.462;16.898;2022-12-20T07:54:29;31.52;;;16.05;;
32872;SDS011;19224;52.462;16.898;2022-12-20T07:57:09;35.85;;;16.87;;
32872;SDS011;19224;52.462;16.898;2022-12-20T07:59:43;30.37;;;15.53;;
32872;SDS011;19224;52.462;16.898;2022-12-20T08:02:18;28.83;;;15.72;;
32872;SDS011;19224;52.462;16.898;2022-12-20T08:04:52;31.07;;;15.48;;
32872;SDS011;19224;52.462;16.898;2022-12-20T08:07:24;30.50;;;15.78;;
32872;SDS011;19224;52.462;16.898;2022-12-20T08:09:57;26.62;;;14.83;;
32872;SDS011;19224;52.462;16.898;2022-12-20T08:12:28;31.00;;;16.00;;
32872;SDS011;19224;52.462;16.898;2022-12-20T08:15:00;27.77;;;15.28;;
32872;SDS011;19224;52.462;16.898;2022-12-20T08:17:31;28.90;;;15.70;;
32872;SDS011;19224;52.462;16.898;2022-12-20T08:20:02;32.08;;;16.50;;
32872;SDS011;19224;52.462;16.898;2022-12-20T08:22:35;30.50;;;15.40;;
32872;SDS011;19224;52.462;16.898;2022-12-20T08:25:05;33.18;;;16.30;;
32872;SDS011;19224;52.462;16.898;2022-12-20T08:27:38;31.07;;;16.30;;
32872;SDS011;19224;52.462;16.898;2022-12-20T08:30:09;31.57;;;15.85;;
32872;SDS011;19224;52.462;16.898;2022-12-20T08:32:40;32.53;;;16.62;;
32872;SDS011;19224;52.462;16.898;2022-12-20T08:35:11;29.98;;;15.95;;
32872;SDS011;19224;52.462;16.898;2022-12-20T08:37:41;32.38;;;16.30;;
32872;SDS011;19224;52.462;16.898;2022-12-20T08:40:12;33.67;;;16.23;;
32872;SDS011;19224;52.462;16.898;2022-12-20T08:42:43;33.48;;;17.23;;
32872;SDS011;19224;52.462;16.898;2022-12-20T08:45:14;31.75;;;17.02;;
32872;SDS011;19224;52.462;16.898;2022-12-20T08:47:45;33.35;;;16.85;;
32872;SDS011;19224;52.462;16.898;2022-12-20T08:50:17;32.05;;;16.10;;
32872;SDS011;19224;52.462;16.898;2022-12-20T08:52:47;34.33;;;16.87;;
32872;SDS011;19224;52.462;16.898;2022-12-20T08:55:18;31.33;;;16.87;;
32872;SDS011;19224;52.462;16.898;2022-12-20T08:57:48;31.42;;;16.32;;
32872;SDS011;19224;52.462;16.898;2022-12-20T09:00:19;30.52;;;16.95;;
32872;SDS011;19224;52.462;16.898;2022-12-20T09:02:50;34.00;;;16.05;;
32872;SDS011;19224;52.462;16.898;2022-12-20T09:05:21;32.03;;;16.62;;
32872;SDS011;19224;52.462;16.898;2022-12-20T09:07:52;33.65;;;17.42;;
32872;SDS011;19224;52.462;16.898;2022-12-20T09:10:22;37.13;;;17.10;;
32872;SDS011;19224;52.462;16.898;2022-12-20T09:12:53;38.58;;;18.23;;
32872;SDS011;19224;52.462;16.898;2022-12-20T09:15:23;33.98;;;18.02;;
32872;SDS011;19224;52.462;16.898;2022-12-20T09:17:54;34.33;;;17.60;;
32872;SDS011;19224;52.462;16.898;2022-12-20T09:20:27;35.73;;;18.25;;
32872;SDS011;19224;52.462;16.898;2022-12-20T09:22:58;34.27;;;16.87;;
32872;SDS011;19224;52.462;16.898;2022-12-20T09:25:30;32.78;;;16.90;;
32872;SDS011;19224;52.462;16.898;2022-12-20T09:28:04;33.42;;;17.35;;
32872;SDS011;19224;52.462;16.898;2022-12-20T09:30:35;38.58;;;18.12;;
32872;SDS011;19224;52.462;16.898;2022-12-20T09:33:05;37.80;;;18.20;;
32872;SDS011;19224;52.462;16.898;2022-12-20T09:35:36;34.15;;;17.17;;
32872;SDS011;19224;52.462;16.898;2022-12-20T09:38:15;32.00;;;16.27;;
32872;SDS011;19224;52.462;16.898;2022-12-20T09:40:46;33.63;;;17.42;;
32872;SDS011;19224;52.462;16.898;2022-12-20T09:43:22;36.00;;;18.65;;
32872;SDS011;19224;52.462;16.898;2022-12-20T09:45:59;32.38;;;16.55;;
32872;SDS011;19224;52.462;16.898;2022-12-20T09:48:32;37.50;;;17.07;;
32872;SDS011;19224;52.462;16.898;2022-12-20T09:59:41;32.65;;;17.07;;
32872;SDS011;19224;52.462;16.898;2022-12-20T10:02:14;33.90;;;17.42;;
32872;SDS011;19224;52.462;16.898;2022-12-20T10:04:50;30.65;;;16.97;;
32872;SDS011;19224;52.462;16.898;2022-12-20T10:07:39;33.23;;;17.90;;
32872;SDS011;19224;52.462;16.898;2022-12-20T10:10:56;34.10;;;18.55;;
32872;SDS011;19224;52.462;16.898;2022-12-20T10:17:03;33.10;;;17.52;;
32872;SDS011;19224;52.462;16.898;2022-12-20T10:19:52;31.65;;;17.20;;
32872;SDS011;19224;52.462;16.898;2022-12-20T10:22:39;33.85;;;16.60;;
32872;SDS011;19224;52.462;16.898;2022-12-20T10:25:27;31.60;;;16.87;;
32872;SDS011;19224;52.462;16.898;2022-12-20T10:28:02;32.50;;;17.12;;
32872;SDS011;19224;52.462;16.898;2022-12-20T10:30:35;33.23;;;17.62;;
32872;SDS011;19224;52.462;16.898;2022-12-20T10:33:07;36.30;;;17.73;;
32872;SDS011;19224;52.462;16.898;2022-12-20T10:35:49;32.48;;;17.35;;
32872;SDS011;19224;52.462;16.898;2022-12-20T10:38:21;33.20;;;17.37;;
32872;SDS011;19224;52.462;16.898;2022-12-20T10:40:59;36.83;;;18.05;;
32872;SDS011;19224;52.462;16.898;2022-12-20T10:43:48;37.00;;;17.98;;
32872;SDS011;19224;52.462;16.898;2022-12-20T10:46:37;36.90;;;18.57;;
32872;SDS011;19224;52.462;16.898;2022-12-20T10:54:42;36.35;;;18.42;;
32872;SDS011;19224;52.462;16.898;2022-12-20T11:00:00;35.43;;;19.07;;
32872;SDS011;19224;52.462;16.898;2022-12-20T11:02:36;35.85;;;17.60;;
32872;SDS011;19224;52.462;16.898;2022-12-20T11:07:51;37.30;;;18.92;;
32872;SDS011;19224;52.462;16.898;2022-12-20T11:10:37;34.55;;;18.32;;
32872;SDS011;19224;52.462;16.898;2022-12-20T11:13:18;38.42;;;19.75;;
32872;SDS011;19224;52.462;16.898;2022-12-20T11:15:50;33.20;;;18.65;;
32872;SDS011;19224;52.462;16.898;2022-12-20T11:18:30;33.98;;;19.27;;
32872;SDS011;19224;52.462;16.898;2022-12-20T11:23:46;38.20;;;20.02;;
32872;SDS011;19224;52.462;16.898;2022-12-20T11:29:31;37.93;;;19.20;;
32872;SDS011;19224;52.462;16.898;2022-12-20T11:32:16;41.02;;;19.82;;
32872;SDS011;19224;52.462;16.898;2022-12-20T11:40:50;34.43;;;19.25;;
32872;SDS011;19224;52.462;16.898;2022-12-20T11:49:49;38.33;;;19.95;;
32872;SDS011;19224;52.462;16.898;2022-12-20T11:52:34;41.70;;;20.80;;
32872;SDS011;19224;52.462;16.898;2022-12-20T11:57:59;38.73;;;20.00;;
32872;SDS011;19224;52.462;16.898;2022-12-20T12:00:39;40.08;;;20.25;;
32872;SDS011;19224;52.462;16.898;2022-12-20T12:03:27;39.40;;;20.43;;
32872;SDS011;19224;52.462;16.898;2022-12-20T12:08:58;37.10;;;19.80;;
32872;SDS011;19224;52.462;16.898;2022-12-20T12:11:46;37.83;;;19.92;;
32872;SDS011;19224;52.462;16.898;2022-12-20T12:14:27;37.70;;;20.62;;
32872;SDS011;19224;52.462;16.898;2022-12-20T12:17:20;35.30;;;19.42;;
32872;SDS011;19224;52.462;16.898;2022-12-20T12:19:55;38.38;;;19.87;;
32872;SDS011;19224;52.462;16.898;2022-12-20T12:22:30;39.55;;;20.15;;
32872;SDS011;19224;52.462;16.898;2022-12-20T12:25:03;39.73;;;20.62;;
32872;SDS011;19224;52.462;16.898;2022-12-20T12:27:39;42.33;;;20.62;;
32872;SDS011;19224;52.462;16.898;2022-12-20T12:30:13;40.43;;;20.20;;
32872;SDS011;19224;52.462;16.898;2022-12-20T12:32:46;39.75;;;19.95;;
32872;SDS011;19224;52.462;16.898;2022-12-20T12:35:44;42.45;;;21.52;;
32872;SDS011;19224;52.462;16.898;2022-12-20T12:44:39;42.50;;;21.73;;
32872;SDS011;19224;52.462;16.898;2022-12-20T12:47:18;45.52;;;22.00;;
32872;SDS011;19224;52.462;16.898;2022-12-20T12:49:52;48.28;;;24.43;;
32872;SDS011;19224;52.462;16.898;2022-12-20T12:52:34;48.83;;;24.47;;
32872;SDS011;19224;52.462;16.898;2022-12-20T13:01:01;44.30;;;22.20;;
32872;SDS011;19224;52.462;16.898;2022-12-20T13:03:37;39.40;;;19.92;;
32872;SDS011;19224;52.462;16.898;2022-12-20T13:11:39;42.73;;;20.85;;
32872;SDS011;19224;52.462;16.898;2022-12-20T13:19:37;42.40;;;20.90;;
32872;SDS011;19224;52.462;16.898;2022-12-20T13:24:55;40.30;;;20.43;;
32872;SDS011;19224;52.462;16.898;2022-12-20T13:27:36;39.18;;;20.35;;
32872;SDS011;19224;52.462;16.898;2022-12-20T13:41:16;39.90;;;20.92;;
32872;SDS011;19224;52.462;16.898;2022-12-20T13:44:02;41.68;;;19.40;;
32872;SDS011;19224;52.462;16.898;2022-12-20T13:46:48;37.53;;;19.55;;
32872;SDS011;19224;52.462;16.898;2022-12-20T13:49:44;37.10;;;19.00;;
32872;SDS011;19224;52.462;16.898;2022-12-20T13:52:26;35.15;;;19.23;;
32872;SDS011;19224;52.462;16.898;2022-12-20T13:55:06;39.70;;;20.52;;
32872;SDS011;19224;52.462;16.898;2022-12-20T13:57:41;35.40;;;19.15;;
32872;SDS011;19224;52.462;16.898;2022-12-20T14:00:23;38.13;;;19.42;;
32872;SDS011;19224;52.462;16.898;2022-12-20T14:02:54;39.33;;;20.08;;
32872;SDS011;19224;52.462;16.898;2022-12-20T14:05:26;38.48;;;19.37;;
32872;SDS011;19224;52.462;16.898;2022-12-20T14:08:04;40.80;;;21.48;;
32872;SDS011;19224;52.462;16.898;2022-12-20T14:10:40;41.18;;;20.52;;
32872;SDS011;19224;52.462;16.898;2022-12-20T14:13:19;45.65;;;21.15;;
32872;SDS011;19224;52.462;16.898;2022-12-20T14:15:54;40.20;;;20.92;;
32872;SDS011;19224;52.462;16.898;2022-12-20T14:18:26;46.92;;;23.05;;
32872;SDS011;19224;52.462;16.898;2022-12-20T14:21:01;44.42;;;21.90;;
32872;SDS011;19224;52.462;16.898;2022-12-20T14:23:35;45.67;;;21.97;;
32872;SDS011;19224;52.462;16.898;2022-12-20T14:26:09;44.23;;;23.07;;
32872;SDS011;19224;52.462;16.898;2022-12-20T14:28:47;52.00;;;24.20;;
32872;SDS011;19224;52.462;16.898;2022-12-20T14:36:48;55.75;;;27.67;;
32872;SDS011;19224;52.462;16.898;2022-12-20T14:39:21;53.87;;;27.87;;
32872;SDS011;19224;52.462;16.898;2022-12-20T14:41:58;59.38;;;29.10;;
32872;SDS011;19224;52.462;16.898;2022-12-20T14:44:32;53.25;;;28.12;;
32872;SDS011;19224;52.462;16.898;2022-12-20T14:47:04;57.83;;;28.55;;
32872;SDS011;19224;52.462;16.898;2022-12-20T14:50:03;60.67;;;28.02;;
32872;SDS011;19224;52.462;16.898;2022-12-20T14:52:50;54.77;;;28.47;;
32872;SDS011;19224;52.462;16.898;2022-12-20T14:55:22;51.58;;;27.00;;
32872;SDS011;19224;52.462;16.898;2022-12-20T14:57:56;53.38;;;26.68;;
32872;SDS011;19224;52.462;16.898;2022-12-20T15:00:30;58.65;;;28.92;;
32872;SDS011;19224;52.462;16.898;2022-12-20T15:03:10;54.63;;;27.85;;
32872;SDS011;19224;52.462;16.898;2022-12-20T15:05:47;64.05;;;30.12;;
32872;SDS011;19224;52.462;16.898;2022-12-20T15:08:31;60.78;;;29.00;;
32872;SDS011;19224;52.462;16.898;2022-12-20T15:11:17;59.90;;;29.10;;
32872;SDS011;19224;52.462;16.898;2022-12-20T15:13:51;58.55;;;28.98;;
32872;SDS011;19224;52.462;16.898;2022-12-20T15:16:28;52.30;;;27.20;;
32872;SDS011;19224;52.462;16.898;2022-12-20T15:18:57;60.48;;;30.17;;
32872;SDS011;19224;52.462;16.898;2022-12-20T15:21:31;66.80;;;31.48;;
32872;SDS011;19224;52.462;16.898;2022-12-20T15:24:14;60.35;;;30.25;;
32872;SDS011;19224;52.462;16.898;2022-12-20T15:26:48;59.50;;;29.25;;
32872;SDS011;19224;52.462;16.898;2022-12-20T15:29:27;64.10;;;29.25;;
32872;SDS011;19224;52.462;16.898;2022-12-20T15:31:59;60.00;;;29.40;;
32872;SDS011;19224;52.462;16.898;2022-12-20T15:34:37;59.08;;;28.50;;
32872;SDS011;19224;52.462;16.898;2022-12-20T15:37:09;66.75;;;31.85;;
32872;SDS011;19224;52.462;16.898;2022-12-20T15:39:43;64.80;;;30.95;;
32872;SDS011;19224;52.462;16.898;2022-12-20T15:42:14;67.27;;;30.70;;
32872;SDS011;19224;52.462;16.898;2022-12-20T15:44:48;66.10;;;31.45;;
32872;SDS011;19224;52.462;16.898;2022-12-20T15:47:19;66.15;;;30.35;;
32872;SDS011;19224;52.462;16.898;2022-12-20T15:49:49;63.08;;;30.82;;
32872;SDS011;19224;52.462;16.898;2022-12-20T15:52:21;61.68;;;30.92;;
32872;SDS011;19224;52.462;16.898;2022-12-20T15:54:52;64.95;;;30.72;;
32872;SDS011;19224;52.462;16.898;2022-12-20T15:57:23;64.97;;;30.90;;
32872;SDS011;19224;52.462;16.898;2022-12-20T15:59:55;70.37;;;33.58;;
32872;SDS011;19224;52.462;16.898;2022-12-20T16:02:26;61.55;;;30.88;;
32872;SDS011;19224;52.462;16.898;2022-12-20T16:04:59;66.97;;;30.32;;
32872;SDS011;19224;52.462;16.898;2022-12-20T16:07:30;58.80;;;29.60;;
32872;SDS011;19224;52.462;16.898;2022-12-20T16:10:00;61.45;;;29.65;;
32872;SDS011;19224;52.462;16.898;2022-12-20T16:12:32;72.10;;;36.05;;
32872;SDS011;19224;52.462;16.898;2022-12-20T16:15:08;59.95;;;29.07;;
32872;SDS011;19224;52.462;16.898;2022-12-20T16:20:36;55.60;;;27.25;;
32872;SDS011;19224;52.462;16.898;2022-12-20T16:23:20;61.65;;;28.83;;
32872;SDS011;19224;52.462;16.898;2022-12-20T16:25:51;51.00;;;26.68;;
32872;SDS011;19224;52.462;16.898;2022-12-20T16:28:21;58.10;;;27.87;;
32872;SDS011;19224;52.462;16.898;2022-12-20T16:30:52;53.20;;;26.60;;
32872;SDS011;19224;52.462;16.898;2022-12-20T16:33:22;55.75;;;27.55;;